createdAt,value
2022-08-21T00:04:57.649Z,100194.81
2022-08-21T00:10:02.174Z,100196.84
2022-08-21T00:15:06.474Z,100181.28
2022-08-21T00:20:13.301Z,100188.66
2022-08-21T00:25:18.251Z,100189.88
2022-08-21T00:30:26.424Z,100185.16
2022-08-21T00:35:31.453Z,100184.75
2022-08-21T00:40:40.504Z,100190.88
2022-08-21T00:45:43.620Z,100193.16
2022-08-21T00:50:48.982Z,100190.47
2022-08-21T00:55:54.050Z,100186.19
2022-08-21T01:00:59.794Z,100187.41
2022-08-21T01:06:02.695Z,100192.13
2022-08-21T01:11:07.226Z,100188.81
2022-08-21T01:16:11.521Z,100189.66
2022-08-21T01:21:18.814Z,100192.91
2022-08-21T01:26:24.413Z,100187.59
2022-08-21T01:31:36.441Z,100191.09
2022-08-21T01:36:40.934Z,100185.78
2022-08-21T01:41:44.045Z,100190.06
2022-08-21T01:46:46.828Z,100196.41
2022-08-21T01:51:50.907Z,100186.78
2022-08-21T01:56:55.820Z,100184.53
2022-08-21T02:01:58.955Z,100191.50
2022-08-21T02:07:03.822Z,100190.88
2022-08-21T02:12:10.106Z,100191.28
2022-08-21T02:17:12.835Z,100187.22
2022-08-21T02:22:17.160Z,100181.50
2022-08-21T02:27:20.434Z,100171.88
2022-08-21T02:32:29.241Z,100172.06
2022-08-21T02:37:33.465Z,100173.69
2022-08-21T02:42:36.293Z,100177.59
2022-08-21T02:47:39.277Z,100179.44
2022-08-21T02:52:43.586Z,100178.22
2022-08-21T02:57:46.324Z,100173.69
2022-08-21T03:02:49.296Z,100167.97
2022-08-21T03:07:54.020Z,100158.16
2022-08-21T03:12:57.083Z,100176.38
2022-08-21T03:18:00.515Z,100171.03
2022-08-21T03:23:06.222Z,100173.69
2022-08-21T03:28:20.687Z,100179.00
2022-08-21T03:33:24.101Z,100172.22
2022-08-21T03:38:28.973Z,100180.81
2022-08-21T03:43:32.533Z,100188.00
2022-08-21T03:48:37.418Z,100184.09
2022-08-21T03:53:41.482Z,100184.47
2022-08-21T03:58:45.054Z,100190.19
2022-08-21T04:03:47.753Z,100194.72
2022-08-21T04:08:51.864Z,100193.47
2022-08-21T04:13:54.566Z,100198.63
2022-08-21T04:18:57.348Z,100202.47
2022-08-21T04:24:01.416Z,100211.28
2022-08-21T04:29:05.817Z,100216.16
2022-08-21T04:34:08.579Z,100219.44
2022-08-21T04:39:12.681Z,100215.13
2022-08-21T04:44:15.869Z,100223.72
2022-08-21T04:49:18.695Z,100232.31
2022-08-21T04:54:24.042Z,100223.34
2022-08-21T04:59:28.697Z,100227.88
2022-08-21T05:04:33.320Z,100226.63
2022-08-21T05:09:39.023Z,100225.84
2022-08-21T05:14:43.256Z,100218.66
2022-08-21T05:19:46.360Z,100235.66
2022-08-21T05:24:50.470Z,100236.91
2022-08-21T05:29:53.350Z,100239.56
2022-08-21T05:34:56.110Z,100245.69
2022-08-21T05:40:05.410Z,100239.97
2022-08-21T05:45:41.930Z,100253.53
2022-08-21T05:50:47.713Z,100254.53
2022-08-21T05:55:51.977Z,100252.06
2022-08-21T06:00:54.705Z,100259.06
2022-08-21T06:05:57.680Z,100259.47
2022-08-21T06:11:02.875Z,100256.41
2022-08-21T06:16:08.141Z,100253.53
2022-08-21T06:21:12.361Z,100252.72
2022-08-21T06:26:16.771Z,100242.50
2022-08-21T06:31:21.004Z,100247.59
2022-08-21T06:36:24.429Z,100253.53
2022-08-21T06:41:28.796Z,100249.84
2022-08-21T06:46:32.152Z,100258.81
2022-08-21T06:51:35.082Z,100263.13
2022-08-21T06:56:39.341Z,100264.56
2022-08-21T07:01:42.272Z,100269.91
2022-08-21T07:06:45.089Z,100265.38
2022-08-21T07:11:52.958Z,100271.75
2022-08-21T07:16:55.810Z,100278.13
2022-08-21T07:22:00.747Z,100273.41
2022-08-21T07:27:09.808Z,100275.44
2022-08-21T07:32:13.366Z,100264.78
2022-08-21T07:37:16.164Z,100265.78
2022-08-21T07:42:21.734Z,100259.03
2022-08-21T07:47:29.473Z,100264.56
2022-08-21T07:52:45.580Z,100252.41
2022-08-21T07:57:50.039Z,100253.19
2022-08-21T08:02:55.370Z,100252.78
2022-08-21T08:07:58.594Z,100256.66
2022-08-21T08:13:02.815Z,100246.63
2022-08-21T08:18:06.085Z,100255.63
2022-08-21T08:23:09.062Z,100266.66
2022-08-21T08:28:16.568Z,100254.72
2022-08-21T08:33:21.172Z,100250.78
2022-08-21T08:38:25.850Z,100246.00
2022-08-21T08:43:30.823Z,100239.41
2022-08-21T08:48:47.177Z,100247.41
2022-08-21T08:54:00.210Z,100256.75
2022-08-21T08:59:10.664Z,100252.44
2022-08-21T09:04:14.445Z,100250.09
2022-08-21T09:09:24.994Z,100254.75
2022-08-21T09:14:41.955Z,100261.38
2022-08-21T09:19:54.925Z,100251.69
2022-08-21T09:25:09.718Z,100254.34
2022-08-21T09:30:14.825Z,100245.69
2022-08-21T09:35:20.648Z,100253.44
2022-08-21T09:40:35.737Z,100251.91
2022-08-21T09:45:40.691Z,100239.00
2022-08-21T09:50:44.781Z,100244.34
2022-08-21T09:56:11.946Z,100248.38
2022-08-21T10:01:18.443Z,100251.50
2022-08-21T10:06:27.470Z,100248.34
2022-08-21T10:11:30.932Z,100244.25
2022-08-21T10:16:42.003Z,100243.97
2022-08-21T10:21:50.498Z,100243.13
2022-08-21T10:26:57.134Z,100240.91
2022-08-21T10:32:21.264Z,100242.19
2022-08-21T10:37:38.326Z,100241.22
2022-08-21T10:42:48.255Z,100235.53
2022-08-21T10:47:58.153Z,100230.97
2022-08-21T10:53:17.115Z,100231.94
2022-08-21T10:58:23.489Z,100235.31
2022-08-21T11:03:31.584Z,100231.03
2022-08-21T11:08:37.597Z,100229.34
2022-08-21T11:13:43.998Z,100229.50
2022-08-21T11:18:52.626Z,100223.59
2022-08-21T11:23:58.589Z,100218.63
2022-08-21T11:29:05.899Z,100219.22
2022-08-21T11:34:18.135Z,100213.56
2022-08-21T11:39:25.120Z,100208.06
2022-08-21T11:44:35.537Z,100194.66
2022-08-21T11:49:51.872Z,100205.53
2022-08-21T11:54:59.654Z,100189.22
2022-08-21T12:00:07.888Z,100201.19
2022-08-21T12:05:29.134Z,100198.59
2022-08-21T12:10:38.269Z,100191.78
2022-08-21T12:15:41.224Z,100192.94
2022-08-21T12:21:02.475Z,100191.06
2022-08-21T12:26:22.782Z,100191.88
2022-08-21T12:31:27.594Z,100192.41
2022-08-21T12:36:42.787Z,100194.31
2022-08-21T12:41:49.853Z,100191.81
2022-08-21T12:46:54.336Z,100190.75
2022-08-21T12:52:04.555Z,100182.41
2022-08-21T12:57:09.135Z,100186.16
2022-08-21T13:02:18.484Z,100190.25
2022-08-21T13:07:28.000Z,100179.97
2022-08-21T13:12:32.411Z,100176.41
2022-08-21T13:17:38.904Z,100171.59
2022-08-21T13:22:46.607Z,100155.88
2022-08-21T13:28:01.034Z,100160.78
2022-08-21T13:33:12.840Z,100155.06
2022-08-21T13:38:18.038Z,100158.22
2022-08-21T13:43:23.456Z,100158.97
2022-08-21T13:48:28.391Z,100155.75
2022-08-21T13:53:34.954Z,100150.00
2022-08-21T13:58:45.102Z,100151.28
2022-08-21T14:03:50.010Z,100155.88
2022-08-21T14:08:56.311Z,100155.88
2022-08-21T14:14:00.735Z,100151.19
2022-08-21T14:19:12.673Z,100148.28
2022-08-21T14:24:28.266Z,100147.19
2022-08-21T14:29:35.916Z,100139.13
2022-08-21T14:34:38.949Z,100140.13
2022-08-21T14:39:45.259Z,100137.19
2022-08-21T14:44:48.421Z,100126.38
2022-08-21T14:49:54.171Z,100140.34
2022-08-21T14:54:58.351Z,100128.06
2022-08-21T15:00:02.269Z,100123.88
2022-08-21T15:05:05.839Z,100123.81
2022-08-21T15:10:10.546Z,100114.47
2022-08-21T15:15:13.751Z,100128.84
2022-08-21T15:20:20.744Z,100124.06
2022-08-21T15:25:25.059Z,100120.81
2022-08-21T15:30:28.042Z,100102.19
2022-08-21T15:35:34.338Z,100103.91
2022-08-21T15:40:47.831Z,100106.41
2022-08-21T15:45:56.637Z,100108.31
2022-08-21T15:51:00.998Z,100108.31
2022-08-21T15:56:07.516Z,100104.50
2022-08-21T16:01:17.955Z,100101.00
2022-08-21T16:06:38.587Z,100102.63
2022-08-21T16:11:46.210Z,100097.44
2022-08-21T16:16:49.065Z,100092.03
2022-08-21T16:21:51.967Z,100093.16
2022-08-21T16:26:58.067Z,100102.38
2022-08-21T16:32:01.384Z,100093.97
2022-08-21T16:37:04.708Z,100098.75
2022-08-21T16:42:11.217Z,100091.13
2022-08-21T16:47:26.673Z,100085.94
2022-08-21T16:52:30.274Z,100086.63
2022-08-21T16:57:34.465Z,100085.09
2022-08-21T17:02:39.242Z,100081.69
2022-08-21T17:07:42.875Z,100085.84
2022-08-21T17:12:55.655Z,100086.28
2022-08-21T17:17:58.545Z,100084.84
2022-08-21T17:23:01.558Z,100082.72
2022-08-21T17:28:05.951Z,100084.22
2022-08-21T17:33:08.682Z,100085.72
2022-08-21T17:38:14.787Z,100082.84
2022-08-21T17:43:19.456Z,100090.25
2022-08-21T17:48:25.377Z,100085.63
2022-08-21T17:53:28.475Z,100103.19
2022-08-21T17:58:33.282Z,100102.47
2022-08-21T18:03:38.570Z,100104.47
2022-08-21T18:08:41.646Z,100104.47
2022-08-21T18:13:46.182Z,100110.88
2022-08-21T18:18:51.434Z,100113.81
2022-08-21T18:23:55.595Z,100119.78
2022-08-21T18:29:01.477Z,100122.47
2022-08-21T18:34:10.668Z,100119.09
2022-08-21T18:39:35.066Z,100122.00
2022-08-21T18:44:37.605Z,100130.59
2022-08-21T18:55:06.279Z,100142.88
2022-08-21T19:00:21.062Z,100133.16
2022-08-21T19:05:25.259Z,100142.44
2022-08-21T19:15:54.669Z,100135.19
2022-08-21T19:20:58.006Z,100133.88
2022-08-21T19:26:03.260Z,100136.84
2022-08-21T19:31:11.682Z,100138.41
2022-08-21T19:36:15.304Z,100135.66
2022-08-21T19:41:19.764Z,100145.28
2022-08-21T19:46:27.482Z,100146.81
2022-08-21T19:51:30.974Z,100153.03
2022-08-21T19:56:34.514Z,100153.50
2022-08-21T20:01:40.011Z,100150.75
2022-08-21T20:06:42.983Z,100158.44
2022-08-21T20:11:49.036Z,100151.09
2022-08-21T20:16:54.280Z,100155.91
2022-08-21T20:21:58.380Z,100145.28
2022-08-21T20:27:02.169Z,100153.34
2022-08-21T20:32:11.956Z,100157.28
2022-08-21T20:42:39.617Z,100156.41
2022-08-21T20:47:43.919Z,100152.53
2022-08-21T20:52:51.391Z,100159.53
2022-08-21T20:58:00.455Z,100151.56
2022-08-21T21:03:08.586Z,100153.69
2022-08-21T21:08:17.188Z,100154.53
2022-08-21T21:13:25.475Z,100156.03
2022-08-21T21:18:33.439Z,100152.53
2022-08-21T21:23:42.712Z,100161.34
2022-08-21T21:28:50.060Z,100156.47
2022-08-21T21:33:54.987Z,100164.72
2022-08-21T21:39:08.605Z,100160.06
2022-08-21T21:44:25.365Z,100167.22
2022-08-21T21:49:56.081Z,100168.28
2022-08-21T21:55:09.620Z,100170.53
2022-08-21T22:00:16.322Z,100169.31
2022-08-21T22:05:27.526Z,100164.81
2022-08-21T22:10:42.930Z,100183.91
2022-08-21T22:15:46.581Z,100178.16
2022-08-21T22:20:54.882Z,100174.50
2022-08-21T22:26:04.785Z,100175.31
2022-08-21T22:31:21.039Z,100175.13
2022-08-21T22:36:25.211Z,100174.72
2022-08-21T22:41:32.283Z,100176.78
2022-08-21T22:46:39.070Z,100172.50
2022-08-21T22:51:46.608Z,100179.03
2022-08-21T22:56:59.811Z,100180.66
2022-08-21T23:02:07.245Z,100177.97
2022-08-21T23:07:35.609Z,100177.13
2022-08-21T23:12:49.821Z,100180.00
2022-08-21T23:18:01.999Z,100180.81
2022-08-21T23:23:23.020Z,100180.00
2022-08-21T23:28:48.447Z,100171.81
2022-08-21T23:34:05.993Z,100180.81
2022-08-21T23:39:21.036Z,100188.56
2022-08-21T23:44:37.037Z,100182.84
2022-08-21T23:49:53.867Z,100182.19
2022-08-21T23:55:10.424Z,100179.09
